Impacts METAR Board
IDs:

KHYI - San Marcos Muni, TX, US

Updated at: 0200 UTC 15 Aug 2020
Potential Impact None Slight Moderate High
Time 14/14Z 14/15Z 14/16Z 14/17Z 14/18Z 14/19Z 14/20Z 14/21Z 14/22Z 14/23Z 15/00Z 15/01Z 15/02Z
Temp82 87 91 95 97 100 102 102 104 103 101 98 93
Dewpt75 72 69 66 64 62 60 61 61 61 60 61 62
Altim29.98 29.97 29.98 29.97 29.95 29.92 29.90 29.87 29.85 29.84 29.83 29.84 29.86
VIS10 10 10 10 10 10 10 10 10 10 10 10 10
CIG-- -- -- -- -- -- -- -- -- -- -- -- --
CoverFEWCLRCLRCLRCLRCLRCLRCLRCLRCLRCLRCLRCLR
FltCatVFRVFRVFRVFRVFRVFRVFRVFRVFRVFRVFRVFRVFR
WX--------------------------
WDir220210210210200190200170210200170170170
WSpd11 13 12 14 12 10 10 8 9 12 12 8 7
WGst-- -- -- 17 -- 16 18 -- -- -- -- -- --
Raw hourly METARs
KHYI 141403Z 22011KT 10SM FEW016 28/24 A2998 RMK AO2
KHYI 141456Z 21013KT 10SM CLR 31/22 A2997 RMK AO2 SLP138 T03060222 50003
KHYI 141556Z 21012KT 10SM CLR 33/21 A2998 RMK AO2 SLP139 T03280206
KHYI 141656Z 21014G17KT 10SM CLR 35/19 A2997 RMK AO2 SLP136 T03500189
KHYI 141756Z 20012KT 10SM CLR 36/18 A2995 RMK AO2 SLP132 T03610178 10367 20256 58006
KHYI 141856Z 19010G16KT 10SM CLR 38/17 A2992 RMK AO2 SLP121 T03780167
KHYI 141956Z 20010G18KT 10SM CLR 39/16 A2990 RMK AO2 SLP113 T03890156
KHYI 142056Z 17008KT 10SM CLR 39/16 A2987 RMK AO2 SLP103 T03890161 56028
KHYI 142156Z 21009KT 10SM CLR 40/16 A2985 RMK AO2 SLP097 T04000161
KHYI 142256Z 20012KT 10SM CLR 39/16 A2984 RMK AO2 SLP094 T03940161
KHYI 142356Z AUTO 17012KT 10SM CLR 38/16 A2983 RMK AO2 SLP089 T03830156 10400 20361 56013
KHYI 150056Z AUTO 17008KT 10SM CLR 37/16 A2984 RMK AO2 SLP093 T03670161
KHYI 150156Z AUTO 17007KT 10SM CLR 34/17 A2986 RMK AO2 SLP099 T03390167